createdAt,value
2019-05-02T00:00:55.440Z,7.70
2019-05-02T00:03:27.960Z,7.70
2019-05-02T00:05:57.890Z,7.60
2019-05-02T00:08:29.285Z,7.50
2019-05-02T00:10:59.092Z,7.50
2019-05-02T00:13:30.847Z,7.50
2019-05-02T00:16:03.215Z,7.40
2019-05-02T00:18:37.256Z,7.40
2019-05-02T00:21:05.900Z,7.40
2019-05-02T00:23:38.347Z,7.30
2019-05-02T00:26:11.165Z,7.30
2019-05-02T00:28:42.902Z,7.30
2019-05-02T00:31:15.119Z,7.30
2019-05-02T00:33:43.969Z,7.30
2019-05-02T00:36:15.987Z,7.20
2019-05-02T00:38:45.646Z,7.20
2019-05-02T00:41:17.151Z,7.20
2019-05-02T00:43:46.511Z,7.20
2019-05-02T00:46:16.595Z,7.20
2019-05-02T00:48:54.132Z,7.20
2019-05-02T00:51:26.703Z,7.10
2019-05-02T00:53:55.847Z,7.10
2019-05-02T00:56:25.344Z,7.10
2019-05-02T00:58:54.599Z,7.10
2019-05-02T01:01:48.874Z,7.00
2019-05-02T01:04:27.627Z,7.00
2019-05-02T01:06:56.825Z,7.00
2019-05-02T01:09:29.011Z,6.90
2019-05-02T01:12:03.329Z,6.90
2019-05-02T01:14:31.745Z,6.90
2019-05-02T01:17:00.996Z,6.80
2019-05-02T01:19:30.380Z,6.80
2019-05-02T01:21:59.827Z,6.80
2019-05-02T01:24:34.242Z,6.80
2019-05-02T01:27:29.124Z,6.70
2019-05-02T01:30:15.947Z,6.70
2019-05-02T01:32:55.831Z,6.70
2019-05-02T01:35:32.752Z,6.70
2019-05-02T01:38:26.292Z,6.60
2019-05-02T01:40:55.601Z,6.60
2019-05-02T01:43:27.567Z,6.50
2019-05-02T01:45:57.352Z,6.40
2019-05-02T01:48:27.258Z,6.40
2019-05-02T01:50:58.346Z,6.40
2019-05-02T01:53:29.219Z,6.30
2019-05-02T01:55:59.483Z,6.30
2019-05-02T01:58:30.755Z,6.30
2019-05-02T02:01:04.121Z,6.20
2019-05-02T02:03:33.702Z,6.20
2019-05-02T02:06:07.940Z,6.20
2019-05-02T02:08:34.848Z,6.20
2019-05-02T02:11:04.576Z,6.10
2019-05-02T02:13:36.703Z,6.00
2019-05-02T02:16:08.628Z,6.00
2019-05-02T02:18:51.067Z,6.00
2019-05-02T02:21:46.094Z,5.90
2019-05-02T02:24:25.235Z,5.90
2019-05-02T02:26:59.306Z,5.80
2019-05-02T02:29:29.472Z,5.80
2019-05-02T02:31:58.744Z,5.80
2019-05-02T02:34:29.680Z,5.70
2019-05-02T02:37:05.478Z,5.70
2019-05-02T02:39:35.468Z,5.70
2019-05-02T02:42:05.104Z,5.70
2019-05-02T02:44:43.235Z,5.60
2019-05-02T02:47:18.896Z,5.60
2019-05-02T02:49:44.160Z,5.60
2019-05-02T02:52:13.382Z,5.60
2019-05-02T02:54:44.837Z,5.60
2019-05-02T02:57:22.042Z,5.60
2019-05-02T02:59:44.321Z,5.60
2019-05-02T03:02:14.477Z,5.50
2019-05-02T03:04:45.985Z,5.50
2019-05-02T03:07:24.037Z,5.50
2019-05-02T03:09:47.002Z,5.50
2019-05-02T03:12:41.432Z,5.50
2019-05-02T03:15:14.060Z,5.50
2019-05-02T03:17:43.867Z,5.50
2019-05-02T03:20:13.058Z,5.50
2019-05-02T03:22:43.602Z,5.50
2019-05-02T03:25:18.432Z,5.50
2019-05-02T03:27:48.231Z,5.50
2019-05-02T03:30:33.123Z,5.50
2019-05-02T03:33:02.525Z,5.50
2019-05-02T03:35:41.927Z,5.50
2019-05-02T03:38:01.951Z,5.50
2019-05-02T03:40:38.459Z,5.50
2019-05-02T03:43:05.903Z,5.50
2019-05-02T03:45:40.287Z,5.50
2019-05-02T03:48:07.598Z,5.50
2019-05-02T03:50:37.326Z,5.60
2019-05-02T03:53:06.871Z,5.60
2019-05-02T03:55:36.935Z,5.60
2019-05-02T03:58:14.666Z,5.60
2019-05-02T04:00:39.860Z,5.70
2019-05-02T04:03:09.927Z,5.70
2019-05-02T04:05:40.426Z,5.70
2019-05-02T04:08:20.061Z,5.70
2019-05-02T04:11:21.185Z,5.70
2019-05-02T04:13:54.650Z,5.70
2019-05-02T04:16:29.877Z,5.80
2019-05-02T04:19:08.086Z,5.80
2019-05-02T04:21:39.106Z,5.80
2019-05-02T04:24:15.769Z,5.90
2019-05-02T04:26:53.649Z,5.90
2019-05-02T04:29:24.557Z,5.90
2019-05-02T04:31:51.698Z,6.00
2019-05-02T04:34:21.176Z,6.00
2019-05-02T04:37:00.176Z,6.00
2019-05-02T04:39:22.985Z,6.10
2019-05-02T04:41:53.151Z,6.10
2019-05-02T04:44:29.741Z,6.10
2019-05-02T04:46:59.806Z,6.10
2019-05-02T04:49:29.879Z,6.20
2019-05-02T04:52:05.943Z,6.20
2019-05-02T04:54:32.509Z,6.20
2019-05-02T04:57:08.435Z,6.30
2019-05-02T04:59:39.555Z,6.30
2019-05-02T05:02:12.442Z,6.30
2019-05-02T05:04:46.268Z,6.40
2019-05-02T05:07:14.589Z,6.40
2019-05-02T05:09:50.064Z,6.50
2019-05-02T05:12:13.981Z,6.50
2019-05-02T05:14:43.390Z,6.50
2019-05-02T05:17:12.513Z,6.60
2019-05-02T05:19:41.351Z,6.60
2019-05-02T05:22:12.012Z,6.60
2019-05-02T05:24:47.717Z,6.70
2019-05-02T05:27:18.964Z,6.70
2019-05-02T05:29:48.582Z,6.80
2019-05-02T05:32:17.978Z,6.80
2019-05-02T05:34:47.805Z,6.90
2019-05-02T05:37:17.312Z,6.90
2019-05-02T05:39:48.816Z,6.90
2019-05-02T05:42:17.888Z,7.00
2019-05-02T05:44:48.453Z,7.00
2019-05-02T05:47:21.144Z,7.00
2019-05-02T05:49:52.206Z,7.10
2019-05-02T05:52:19.037Z,7.10
2019-05-02T05:54:48.040Z,7.20
2019-05-02T05:57:20.960Z,7.20
2019-05-02T05:59:48.392Z,7.30
2019-05-02T06:02:18.396Z,7.30
2019-05-02T06:04:50.123Z,7.40
2019-05-02T06:07:20.076Z,7.40
2019-05-02T06:09:49.027Z,7.50
2019-05-02T06:12:17.793Z,7.50
2019-05-02T06:14:46.891Z,7.50
2019-05-02T06:17:15.767Z,7.60
2019-05-02T06:19:48.302Z,7.60
2019-05-02T06:22:22.425Z,7.70
2019-05-02T06:24:50.818Z,7.80
2019-05-02T06:27:20.754Z,7.80
2019-05-02T06:29:51.068Z,7.90
2019-05-02T06:32:20.552Z,8.00
2019-05-02T06:34:49.613Z,8.00
2019-05-02T06:37:18.456Z,8.10
2019-05-02T06:39:47.594Z,8.20
2019-05-02T06:42:16.566Z,8.20
2019-05-02T06:44:45.543Z,8.30
2019-05-02T06:47:14.718Z,8.30
2019-05-02T06:49:43.823Z,8.40
2019-05-02T06:52:12.650Z,8.40
2019-05-02T06:54:41.531Z,8.50
2019-05-02T06:57:10.454Z,8.50
2019-05-02T06:59:39.499Z,8.60
2019-05-02T07:02:08.383Z,8.70
2019-05-02T07:04:37.270Z,8.80
2019-05-02T07:07:06.385Z,8.90
2019-05-02T07:09:40.834Z,9.00
2019-05-02T07:12:09.941Z,9.00
2019-05-02T07:14:37.026Z,9.10
2019-05-02T07:17:14.122Z,9.10
2019-05-02T07:19:46.706Z,9.20
2019-05-02T07:22:15.475Z,9.30
2019-05-02T07:24:44.329Z,9.30
2019-05-02T07:27:13.589Z,9.40
2019-05-02T07:29:42.598Z,9.50
2019-05-02T07:32:11.560Z,9.50
2019-05-02T07:34:44.254Z,9.60
2019-05-02T07:37:12.677Z,9.60
2019-05-02T07:39:42.446Z,9.60
2019-05-02T07:42:11.677Z,9.70
2019-05-02T07:44:40.438Z,9.70
2019-05-02T07:47:09.454Z,9.80
2019-05-02T07:49:38.302Z,9.90
2019-05-02T07:52:07.707Z,9.90
2019-05-02T07:54:36.602Z,10.00
2019-05-02T07:57:07.222Z,10.00
2019-05-02T07:59:36.440Z,10.10
2019-05-02T08:02:05.466Z,10.20
2019-05-02T08:04:34.350Z,10.20
2019-05-02T08:07:03.801Z,10.30
2019-05-02T08:09:32.565Z,10.40
2019-05-02T08:12:01.838Z,10.40
2019-05-02T08:14:34.508Z,10.40
2019-05-02T08:17:05.662Z,10.50
2019-05-02T08:19:32.042Z,10.60
2019-05-02T08:22:04.746Z,10.60
2019-05-02T08:24:33.025Z,10.70
2019-05-02T08:27:36.539Z,10.70
2019-05-02T08:30:06.085Z,10.70
2019-05-02T08:32:34.859Z,10.80
2019-05-02T08:35:03.978Z,10.90
2019-05-02T08:37:35.263Z,10.90
2019-05-02T08:40:05.365Z,11.00
2019-05-02T08:42:34.051Z,11.00
2019-05-02T08:45:03.311Z,11.10
2019-05-02T08:47:32.455Z,11.10
2019-05-02T08:50:01.360Z,11.20
2019-05-02T08:52:30.541Z,11.20
2019-05-02T08:54:59.453Z,11.20
2019-05-02T08:57:29.958Z,11.30
2019-05-02T09:00:00.175Z,11.30
2019-05-02T09:02:40.833Z,11.30
2019-05-02T09:05:04.658Z,11.20
2019-05-02T09:07:31.614Z,11.20
2019-05-02T09:10:05.651Z,11.20
2019-05-02T09:12:36.745Z,11.30
2019-05-02T09:15:03.751Z,11.40
2019-05-02T09:17:38.240Z,11.50
2019-05-02T09:20:10.662Z,11.60
2019-05-02T09:22:34.850Z,11.60
2019-05-02T09:25:04.477Z,11.70
2019-05-02T09:27:33.570Z,11.70
2019-05-02T09:30:05.118Z,11.70
2019-05-02T09:32:36.972Z,11.80
2019-05-02T09:35:06.287Z,11.80
2019-05-02T09:37:35.327Z,11.90
2019-05-02T09:40:06.876Z,11.90
2019-05-02T09:42:35.284Z,12.00
2019-05-02T09:45:04.743Z,12.00
2019-05-02T09:47:47.008Z,12.00
2019-05-02T09:50:20.755Z,12.10
2019-05-02T09:52:47.052Z,12.20
2019-05-02T09:55:17.190Z,12.40
2019-05-02T09:57:46.191Z,12.40
2019-05-02T10:00:32.395Z,12.40
2019-05-02T10:02:57.917Z,12.40
2019-05-02T10:05:27.254Z,12.50
2019-05-02T10:07:57.553Z,12.50
2019-05-02T10:10:27.807Z,12.50
2019-05-02T10:12:56.690Z,12.50
2019-05-02T10:15:25.750Z,12.50
2019-05-02T10:18:07.929Z,12.60
2019-05-02T10:20:31.814Z,12.60
2019-05-02T10:22:56.130Z,12.60
2019-05-02T10:25:24.911Z,12.70
2019-05-02T10:27:53.929Z,12.70
2019-05-02T10:30:24.820Z,12.80
2019-05-02T10:32:57.232Z,12.90
2019-05-02T10:35:36.520Z,13.00
2019-05-02T10:37:59.457Z,13.00
2019-05-02T10:40:28.235Z,12.90
2019-05-02T10:42:57.390Z,12.90
2019-05-02T10:45:26.480Z,12.90
2019-05-02T10:47:55.325Z,13.00
2019-05-02T10:50:29.894Z,13.20
2019-05-02T10:53:02.904Z,13.30
2019-05-02T10:55:29.362Z,13.40
2019-05-02T10:57:58.597Z,13.50
2019-05-02T11:00:33.663Z,13.60
2019-05-02T11:03:22.506Z,13.70
2019-05-02T11:05:57.919Z,13.80
2019-05-02T11:08:25.810Z,13.90
2019-05-02T11:10:54.732Z,14.00
2019-05-02T11:13:38.373Z,14.00
2019-05-02T11:16:26.462Z,14.20
2019-05-02T11:19:04.299Z,14.20
2019-05-02T11:21:33.829Z,14.30
2019-05-02T11:24:02.965Z,14.40
2019-05-02T11:26:32.557Z,14.40
2019-05-02T11:29:02.973Z,14.50
2019-05-02T11:31:32.575Z,14.60
2019-05-02T11:34:01.953Z,14.50
2019-05-02T11:36:32.804Z,14.40
2019-05-02T11:39:13.409Z,14.50
2019-05-02T11:41:32.385Z,14.60
2019-05-02T11:44:03.019Z,14.80
2019-05-02T11:46:33.006Z,14.80
2019-05-02T11:49:02.551Z,14.90
2019-05-02T11:51:32.591Z,14.90
2019-05-02T11:54:05.195Z,15.00
2019-05-02T11:56:34.419Z,15.00
2019-05-02T11:59:03.328Z,15.00
2019-05-02T12:01:37.189Z,15.00
2019-05-02T12:04:03.119Z,15.20
2019-05-02T12:06:33.183Z,15.40
2019-05-02T12:09:03.238Z,15.60
2019-05-02T12:11:32.525Z,15.70
2019-05-02T12:14:01.861Z,15.90
2019-05-02T12:16:32.346Z,16.00
2019-05-02T12:19:09.544Z,16.00
2019-05-02T12:21:32.817Z,15.90
2019-05-02T12:24:02.226Z,16.00
2019-05-02T12:26:32.388Z,16.00
2019-05-02T12:29:02.560Z,16.10
2019-05-02T12:31:32.759Z,16.30
2019-05-02T12:34:04.153Z,16.40
2019-05-02T12:36:33.595Z,16.40
2019-05-02T12:39:02.736Z,16.40
2019-05-02T12:41:33.091Z,16.40
2019-05-02T12:44:02.498Z,16.50
2019-05-02T12:46:31.847Z,16.60
2019-05-02T12:49:02.751Z,16.80
2019-05-02T12:51:32.907Z,16.90
2019-05-02T12:54:02.261Z,17.10
2019-05-02T12:56:32.351Z,17.20
2019-05-02T12:59:02.448Z,17.30
2019-05-02T13:01:33.106Z,17.40
2019-05-02T13:04:05.967Z,17.50
2019-05-02T13:06:37.145Z,17.50
2019-05-02T13:09:09.533Z,17.50
2019-05-02T13:12:06.546Z,17.50
2019-05-02T13:14:35.794Z,17.50
2019-05-02T13:17:05.985Z,17.60
2019-05-02T13:19:41.362Z,17.70
2019-05-02T13:22:24.197Z,17.80
2019-05-02T13:24:56.468Z,17.80
2019-05-02T13:27:25.707Z,17.90
2019-05-02T13:29:54.683Z,18.00
2019-05-02T13:32:53.727Z,18.10
2019-05-02T13:35:34.554Z,18.10
2019-05-02T13:38:05.009Z,18.20
2019-05-02T13:40:45.573Z,18.10
2019-05-02T13:43:14.791Z,18.10
2019-05-02T13:46:10.108Z,18.10
2019-05-02T13:48:39.295Z,18.00
2019-05-02T13:51:08.226Z,18.00
2019-05-02T13:53:40.281Z,18.00
2019-05-02T13:56:43.303Z,18.10
2019-05-02T13:59:13.003Z,18.10
2019-05-02T14:01:42.400Z,18.10
2019-05-02T14:04:14.737Z,18.00
2019-05-02T14:06:42.243Z,17.90
2019-05-02T14:09:24.032Z,17.90
2019-05-02T14:12:06.718Z,17.90
2019-05-02T14:14:35.827Z,17.90
2019-05-02T14:17:05.365Z,17.80
2019-05-02T14:19:34.259Z,17.80
2019-05-02T14:22:03.191Z,17.90
2019-05-02T14:24:32.434Z,17.80
2019-05-02T14:27:07.167Z,17.80
2019-05-02T14:29:34.894Z,17.80
2019-05-02T14:32:05.861Z,17.90
2019-05-02T14:34:47.181Z,17.80
2019-05-02T14:37:16.198Z,17.80
2019-05-02T14:39:46.736Z,17.80
2019-05-02T14:42:22.188Z,17.80
2019-05-02T14:45:04.136Z,17.80
2019-05-02T14:47:19.577Z,17.80
2019-05-02T14:49:47.955Z,17.90
2019-05-02T14:52:16.987Z,17.90
2019-05-02T14:54:48.035Z,17.90
2019-05-02T14:57:25.415Z,18.00
2019-05-02T14:59:50.438Z,17.90
2019-05-02T15:02:39.212Z,17.80
2019-05-02T15:05:08.710Z,17.60
2019-05-02T15:07:38.577Z,17.50
2019-05-02T15:10:07.968Z,17.50
2019-05-02T15:12:37.066Z,17.50
2019-05-02T15:15:07.134Z,17.40
2019-05-02T15:17:37.890Z,17.40
2019-05-02T15:20:12.977Z,17.30
2019-05-02T15:22:42.545Z,17.30
2019-05-02T15:25:17.725Z,17.30
2019-05-02T15:27:45.279Z,17.20
2019-05-02T15:30:16.019Z,17.10
2019-05-02T15:32:56.829Z,17.00
2019-05-02T15:35:46.210Z,16.80
2019-05-02T15:38:24.221Z,16.70
2019-05-02T15:40:50.517Z,16.50
2019-05-02T15:43:17.438Z,16.40
2019-05-02T15:45:46.441Z,16.40
2019-05-02T15:48:22.671Z,16.30
2019-05-02T15:50:50.237Z,16.20
2019-05-02T15:53:25.298Z,16.20
2019-05-02T15:55:54.256Z,16.10
2019-05-02T15:58:27.676Z,16.00
2019-05-02T16:01:14.741Z,15.90
2019-05-02T16:03:46.715Z,15.90
2019-05-02T16:06:16.584Z,15.80
2019-05-02T16:08:47.532Z,15.70
2019-05-02T16:11:17.656Z,15.70
2019-05-02T16:13:52.441Z,15.70
2019-05-02T16:16:18.811Z,15.60
2019-05-02T16:18:47.665Z,15.60
2019-05-02T16:21:29.072Z,15.60
2019-05-02T16:24:14.979Z,15.50
2019-05-02T16:26:46.749Z,15.50
2019-05-02T16:29:19.747Z,15.40
2019-05-02T16:31:50.086Z,15.40
2019-05-02T16:34:18.945Z,15.30
2019-05-02T16:36:47.975Z,15.20
2019-05-02T16:39:16.934Z,15.10
2019-05-02T16:41:49.071Z,15.00
2019-05-02T16:44:17.207Z,14.90
2019-05-02T16:46:46.359Z,14.80
2019-05-02T16:49:18.451Z,14.70
2019-05-02T16:51:46.044Z,14.60
2019-05-02T16:54:15.131Z,14.30
2019-05-02T16:56:45.908Z,14.20
2019-05-02T16:59:16.879Z,14.00
2019-05-02T17:01:45.987Z,13.90
2019-05-02T17:04:14.884Z,13.80
2019-05-02T17:06:45.138Z,13.70
2019-05-02T17:09:38.675Z,13.60
2019-05-02T17:12:13.945Z,13.50
2019-05-02T17:14:38.165Z,13.50
2019-05-02T17:17:06.987Z,13.30
2019-05-02T17:19:35.978Z,13.30
2019-05-02T17:22:07.816Z,13.20
2019-05-02T17:24:36.607Z,13.20
2019-05-02T17:27:05.595Z,13.10
2019-05-02T17:29:34.907Z,13.10
2019-05-02T17:32:04.089Z,13.00
2019-05-02T17:34:35.024Z,13.00
2019-05-02T17:37:11.139Z,12.90
2019-05-02T17:39:37.366Z,12.80
2019-05-02T17:42:05.709Z,12.80
2019-05-02T17:44:34.614Z,12.80
2019-05-02T17:47:03.399Z,12.80
2019-05-02T17:49:36.687Z,12.70
2019-05-02T17:52:26.822Z,12.60
2019-05-02T17:54:52.966Z,12.50
2019-05-02T17:57:21.899Z,12.50
2019-05-02T17:59:51.975Z,12.40
2019-05-02T18:02:21.990Z,12.40
2019-05-02T18:04:52.098Z,12.40
2019-05-02T18:07:25.300Z,12.30
2019-05-02T18:09:52.507Z,12.40
2019-05-02T18:12:21.866Z,12.30
2019-05-02T18:14:51.408Z,12.20
2019-05-02T18:17:22.005Z,12.10
2019-05-02T18:19:52.071Z,12.10
2019-05-02T18:22:23.998Z,12.10
2019-05-02T18:24:52.722Z,12.00
2019-05-02T18:27:22.934Z,12.00
2019-05-02T18:29:51.837Z,12.00
2019-05-02T18:32:24.541Z,12.00
2019-05-02T18:34:51.999Z,11.90
2019-05-02T18:37:21.874Z,12.00
2019-05-02T18:39:53.891Z,11.90
2019-05-02T18:42:25.499Z,11.90
2019-05-02T18:44:55.355Z,11.90
2019-05-02T18:47:24.996Z,11.80
2019-05-02T18:50:00.832Z,11.90
2019-05-02T18:52:35.601Z,11.80
2019-05-02T18:54:55.903Z,11.80
2019-05-02T18:57:26.111Z,11.80
2019-05-02T18:59:56.391Z,11.80
2019-05-02T19:02:31.696Z,11.80
2019-05-02T19:04:57.229Z,11.80
2019-05-02T19:07:33.167Z,11.80
2019-05-02T19:09:58.818Z,11.70
2019-05-02T19:12:28.726Z,11.70
2019-05-02T19:15:03.226Z,11.70
2019-05-02T19:17:29.383Z,11.70
2019-05-02T19:19:58.715Z,11.70
2019-05-02T19:22:28.146Z,11.70
2019-05-02T19:24:57.266Z,11.60
2019-05-02T19:27:45.727Z,11.60
2019-05-02T19:30:18.793Z,11.60
2019-05-02T19:32:45.769Z,11.60
2019-05-02T19:35:14.625Z,11.60
2019-05-02T19:37:47.568Z,11.60
2019-05-02T19:40:20.012Z,11.60
2019-05-02T19:42:46.911Z,11.60
2019-05-02T19:45:16.844Z,11.60
2019-05-02T19:47:48.940Z,11.50
2019-05-02T19:50:40.323Z,11.50
2019-05-02T19:53:05.096Z,11.50
2019-05-02T19:55:34.042Z,11.50
2019-05-02T19:58:06.435Z,11.50
2019-05-02T20:00:36.690Z,11.40
2019-05-02T20:03:04.979Z,11.40
2019-05-02T20:05:34.371Z,11.40
2019-05-02T20:08:03.770Z,11.40
2019-05-02T20:10:32.995Z,11.40
2019-05-02T20:13:03.089Z,11.40
2019-05-02T20:15:34.523Z,11.40
2019-05-02T20:18:04.711Z,11.40
2019-05-02T20:21:04.849Z,11.40
2019-05-02T20:23:35.668Z,11.30
2019-05-02T20:26:09.503Z,11.30
2019-05-02T20:28:35.681Z,11.30
2019-05-02T20:31:04.738Z,11.40
2019-05-02T20:33:33.692Z,11.30
2019-05-02T20:36:03.086Z,11.30
2019-05-02T20:38:32.449Z,11.30
2019-05-02T20:41:09.418Z,11.30
2019-05-02T20:43:38.282Z,11.30
2019-05-02T20:46:07.331Z,11.30
2019-05-02T20:48:36.606Z,11.30
2019-05-02T20:51:07.904Z,11.20
2019-05-02T20:53:37.376Z,11.20
2019-05-02T20:56:09.022Z,11.30
2019-05-02T20:58:38.267Z,11.30
2019-05-02T21:01:08.899Z,11.20
2019-05-02T21:03:38.120Z,11.30
2019-05-02T21:06:13.661Z,11.20
2019-05-02T21:09:14.018Z,11.20
2019-05-02T21:11:48.590Z,11.20
2019-05-02T21:14:17.502Z,11.20
2019-05-02T21:16:46.497Z,11.20
2019-05-02T21:19:15.744Z,11.10
2019-05-02T21:21:46.486Z,11.10
2019-05-02T21:24:16.195Z,11.00
2019-05-02T21:26:45.460Z,11.00
2019-05-02T21:29:14.690Z,11.00
2019-05-02T21:31:43.828Z,11.00
2019-05-02T21:34:13.042Z,10.90
2019-05-02T21:36:42.599Z,10.90
2019-05-02T21:39:12.485Z,10.90
2019-05-02T21:41:42.376Z,10.80
2019-05-02T21:44:13.131Z,10.70
2019-05-02T21:46:42.486Z,10.60
2019-05-02T21:49:13.023Z,10.40
2019-05-02T21:51:51.778Z,10.30
2019-05-02T21:54:27.973Z,10.20
2019-05-02T21:57:17.797Z,10.10
2019-05-02T21:59:47.630Z,10.10
2019-05-02T22:02:19.433Z,10.10
2019-05-02T22:04:48.661Z,10.00
2019-05-02T22:07:17.878Z,10.00
2019-05-02T22:09:47.462Z,10.00
2019-05-02T22:12:19.075Z,9.90
2019-05-02T22:14:48.375Z,9.90
2019-05-02T22:17:17.358Z,9.80
2019-05-02T22:19:46.494Z,9.80
2019-05-02T22:22:15.747Z,9.80
2019-05-02T22:24:44.768Z,9.70
2019-05-02T22:27:13.649Z,9.70
2019-05-02T22:29:43.056Z,9.60
2019-05-02T22:32:12.401Z,9.50
2019-05-02T22:34:42.996Z,9.50
2019-05-02T22:37:13.878Z,9.50
2019-05-02T22:39:51.263Z,9.40
2019-05-02T22:42:21.903Z,9.40
2019-05-02T22:44:51.111Z,9.30
2019-05-02T22:47:19.948Z,9.30
2019-05-02T22:49:48.903Z,9.30
2019-05-02T22:52:19.009Z,9.30
2019-05-02T22:54:48.291Z,9.30
2019-05-02T22:57:17.687Z,9.30
2019-05-02T22:59:46.891Z,9.30
2019-05-02T23:02:16.185Z,9.30
2019-05-02T23:04:45.871Z,9.30
2019-05-02T23:07:15.106Z,9.30
2019-05-02T23:09:44.358Z,9.30
2019-05-02T23:12:13.460Z,9.30
2019-05-02T23:14:42.694Z,9.30
2019-05-02T23:17:12.737Z,9.30
2019-05-02T23:19:42.430Z,9.30
2019-05-02T23:22:12.715Z,9.30
2019-05-02T23:25:11.645Z,9.20
2019-05-02T23:27:57.369Z,9.20
2019-05-02T23:30:26.485Z,9.20
2019-05-02T23:32:55.410Z,9.10
2019-05-02T23:35:26.546Z,9.10
2019-05-02T23:37:56.325Z,9.10
2019-05-02T23:40:25.484Z,9.10
2019-05-02T23:42:54.434Z,9.10
2019-05-02T23:45:23.563Z,9.10
2019-05-02T23:47:52.895Z,9.10
2019-05-02T23:50:22.864Z,9.10
2019-05-02T23:52:52.211Z,9.00
2019-05-02T23:55:22.858Z,9.10
2019-05-02T23:57:52.402Z,9.10
